sensor_id;sensor_type;location;lat;lon;timestamp;P1;durP1;ratioP1;P2;durP2;ratioP2
40150;SDS011;25866;52.420;10.640;2022-10-14T00:00:59;13.32;;;9.40;;
40150;SDS011;25866;52.420;10.640;2022-10-14T00:03:29;14.73;;;8.73;;
40150;SDS011;25866;52.420;10.640;2022-10-14T00:05:55;13.60;;;9.05;;
40150;SDS011;25866;52.420;10.640;2022-10-14T00:08:22;14.18;;;8.73;;
40150;SDS011;25866;52.420;10.640;2022-10-14T00:10:48;13.77;;;9.00;;
40150;SDS011;25866;52.420;10.640;2022-10-14T00:13:14;17.65;;;9.55;;
40150;SDS011;25866;52.420;10.640;2022-10-14T00:15:40;13.90;;;9.27;;
40150;SDS011;25866;52.420;10.640;2022-10-14T00:18:07;15.90;;;9.68;;
40150;SDS011;25866;52.420;10.640;2022-10-14T00:20:33;14.18;;;9.27;;
40150;SDS011;25866;52.420;10.640;2022-10-14T00:22:59;15.30;;;8.90;;
40150;SDS011;25866;52.420;10.640;2022-10-14T00:25:25;13.38;;;9.23;;
40150;SDS011;25866;52.420;10.640;2022-10-14T00:27:51;15.10;;;9.55;;
40150;SDS011;25866;52.420;10.640;2022-10-14T00:30:17;15.32;;;9.05;;
40150;SDS011;25866;52.420;10.640;2022-10-14T00:32:42;16.50;;;10.27;;
40150;SDS011;25866;52.420;10.640;2022-10-14T00:35:08;18.13;;;9.55;;
40150;SDS011;25866;52.420;10.640;2022-10-14T00:37:34;16.60;;;10.27;;
40150;SDS011;25866;52.420;10.640;2022-10-14T00:40:00;17.27;;;10.10;;
40150;SDS011;25866;52.420;10.640;2022-10-14T00:42:26;14.60;;;10.27;;
40150;SDS011;25866;52.420;10.640;2022-10-14T00:44:58;18.65;;;10.30;;
40150;SDS011;25866;52.420;10.640;2022-10-14T00:47:26;15.30;;;9.88;;
40150;SDS011;25866;52.420;10.640;2022-10-14T00:49:52;17.30;;;10.13;;
40150;SDS011;25866;52.420;10.640;2022-10-14T00:52:19;16.63;;;9.82;;
40150;SDS011;25866;52.420;10.640;2022-10-14T00:54:52;15.73;;;9.57;;
40150;SDS011;25866;52.420;10.640;2022-10-14T00:57:21;18.67;;;10.45;;
40150;SDS011;25866;52.420;10.640;2022-10-14T00:59:49;14.45;;;10.40;;
40150;SDS011;25866;52.420;10.640;2022-10-14T01:02:15;17.75;;;10.10;;
40150;SDS011;25866;52.420;10.640;2022-10-14T01:04:41;15.02;;;9.98;;
40150;SDS011;25866;52.420;10.640;2022-10-14T01:20:21;22.42;;;13.10;;
40150;SDS011;25866;52.420;10.640;2022-10-14T01:28:28;28.23;;;13.68;;
40150;SDS011;25866;52.420;10.640;2022-10-14T01:31:06;22.75;;;12.98;;
40150;SDS011;25866;52.420;10.640;2022-10-14T01:33:40;21.92;;;12.57;;
40150;SDS011;25866;52.420;10.640;2022-10-14T01:36:28;22.55;;;12.43;;
40150;SDS011;25866;52.420;10.640;2022-10-14T01:39:12;20.63;;;13.15;;
40150;SDS011;25866;52.420;10.640;2022-10-14T01:42:08;22.27;;;13.70;;
40150;SDS011;25866;52.420;10.640;2022-10-14T01:44:40;22.00;;;13.80;;
40150;SDS011;25866;52.420;10.640;2022-10-14T01:47:09;26.08;;;14.90;;
40150;SDS011;25866;52.420;10.640;2022-10-14T01:49:44;20.45;;;13.25;;
40150;SDS011;25866;52.420;10.640;2022-10-14T01:52:17;22.00;;;14.73;;
40150;SDS011;25866;52.420;10.640;2022-10-14T01:54:47;25.40;;;14.30;;
40150;SDS011;25866;52.420;10.640;2022-10-14T01:57:18;21.73;;;14.40;;
40150;SDS011;25866;52.420;10.640;2022-10-14T01:59:47;27.63;;;15.20;;
40150;SDS011;25866;52.420;10.640;2022-10-14T02:02:14;26.38;;;14.48;;
40150;SDS011;25866;52.420;10.640;2022-10-14T02:04:41;20.92;;;14.20;;
40150;SDS011;25866;52.420;10.640;2022-10-14T02:07:27;25.08;;;14.85;;
40150;SDS011;25866;52.420;10.640;2022-10-14T02:12:54;33.38;;;15.82;;
40150;SDS011;25866;52.420;10.640;2022-10-14T02:15:30;25.80;;;16.08;;
40150;SDS011;25866;52.420;10.640;2022-10-14T02:20:54;22.30;;;14.40;;
40150;SDS011;25866;52.420;10.640;2022-10-14T02:23:29;21.30;;;15.27;;
40150;SDS011;25866;52.420;10.640;2022-10-14T02:25:59;25.92;;;15.05;;
40150;SDS011;25866;52.420;10.640;2022-10-14T02:28:26;26.20;;;15.18;;
40150;SDS011;25866;52.420;10.640;2022-10-14T02:30:57;22.42;;;14.55;;
40150;SDS011;25866;52.420;10.640;2022-10-14T02:33:36;22.27;;;14.55;;
40150;SDS011;25866;52.420;10.640;2022-10-14T02:36:06;24.95;;;14.93;;
40150;SDS011;25866;52.420;10.640;2022-10-14T02:38:38;25.83;;;14.60;;
40150;SDS011;25866;52.420;10.640;2022-10-14T02:41:06;23.88;;;14.70;;
40150;SDS011;25866;52.420;10.640;2022-10-14T02:43:36;27.25;;;14.90;;
40150;SDS011;25866;52.420;10.640;2022-10-14T02:46:02;20.98;;;13.38;;
40150;SDS011;25866;52.420;10.640;2022-10-14T02:48:29;24.23;;;14.02;;
40150;SDS011;25866;52.420;10.640;2022-10-14T02:50:55;21.75;;;13.38;;
40150;SDS011;25866;52.420;10.640;2022-10-14T02:53:21;22.92;;;14.23;;
40150;SDS011;25866;52.420;10.640;2022-10-14T02:55:46;20.17;;;13.60;;
40150;SDS011;25866;52.420;10.640;2022-10-14T02:58:12;23.98;;;14.77;;
40150;SDS011;25866;52.420;10.640;2022-10-14T03:00:38;23.27;;;14.45;;
40150;SDS011;25866;52.420;10.640;2022-10-14T03:03:04;22.67;;;13.38;;
40150;SDS011;25866;52.420;10.640;2022-10-14T03:05:30;26.42;;;13.95;;
40150;SDS011;25866;52.420;10.640;2022-10-14T03:07:56;29.15;;;14.98;;
40150;SDS011;25866;52.420;10.640;2022-10-14T03:10:21;26.48;;;14.02;;
40150;SDS011;25866;52.420;10.640;2022-10-14T03:12:47;20.85;;;13.30;;
40150;SDS011;25866;52.420;10.640;2022-10-14T03:15:13;21.77;;;14.13;;
40150;SDS011;25866;52.420;10.640;2022-10-14T03:17:38;23.70;;;14.02;;
40150;SDS011;25866;52.420;10.640;2022-10-14T03:20:04;23.27;;;13.70;;
40150;SDS011;25866;52.420;10.640;2022-10-14T03:22:31;25.33;;;14.23;;
40150;SDS011;25866;52.420;10.640;2022-10-14T03:24:56;21.15;;;13.00;;
40150;SDS011;25866;52.420;10.640;2022-10-14T03:27:22;28.33;;;13.43;;
40150;SDS011;25866;52.420;10.640;2022-10-14T03:29:48;27.10;;;14.82;;
40150;SDS011;25866;52.420;10.640;2022-10-14T03:32:14;22.63;;;13.63;;
40150;SDS011;25866;52.420;10.640;2022-10-14T03:34:39;21.98;;;13.85;;
40150;SDS011;25866;52.420;10.640;2022-10-14T03:37:05;20.13;;;13.27;;
40150;SDS011;25866;52.420;10.640;2022-10-14T03:39:31;24.10;;;13.85;;
40150;SDS011;25866;52.420;10.640;2022-10-14T03:41:58;26.77;;;14.27;;
40150;SDS011;25866;52.420;10.640;2022-10-14T03:44:24;23.42;;;14.80;;
40150;SDS011;25866;52.420;10.640;2022-10-14T03:46:49;21.45;;;14.23;;
40150;SDS011;25866;52.420;10.640;2022-10-14T03:49:15;20.63;;;13.65;;
40150;SDS011;25866;52.420;10.640;2022-10-14T03:51:41;18.38;;;12.90;;
40150;SDS011;25866;52.420;10.640;2022-10-14T03:54:06;22.38;;;13.93;;
40150;SDS011;25866;52.420;10.640;2022-10-14T03:56:32;22.20;;;13.43;;
40150;SDS011;25866;52.420;10.640;2022-10-14T03:58:59;23.95;;;14.32;;
40150;SDS011;25866;52.420;10.640;2022-10-14T04:01:25;18.35;;;13.05;;
40150;SDS011;25866;52.420;10.640;2022-10-14T04:03:51;22.23;;;13.15;;
40150;SDS011;25866;52.420;10.640;2022-10-14T04:06:17;25.88;;;15.57;;
40150;SDS011;25866;52.420;10.640;2022-10-14T04:08:42;21.77;;;13.32;;
40150;SDS011;25866;52.420;10.640;2022-10-14T04:11:08;20.13;;;13.07;;
40150;SDS011;25866;52.420;10.640;2022-10-14T04:13:34;21.15;;;13.63;;
40150;SDS011;25866;52.420;10.640;2022-10-14T04:16:03;23.75;;;14.38;;
40150;SDS011;25866;52.420;10.640;2022-10-14T04:18:31;22.50;;;13.38;;
40150;SDS011;25866;52.420;10.640;2022-10-14T04:21:00;23.17;;;14.35;;
40150;SDS011;25866;52.420;10.640;2022-10-14T04:23:31;22.60;;;14.25;;
40150;SDS011;25866;52.420;10.640;2022-10-14T04:25:57;23.38;;;13.70;;
40150;SDS011;25866;52.420;10.640;2022-10-14T04:28:22;22.58;;;13.73;;
40150;SDS011;25866;52.420;10.640;2022-10-14T04:30:49;18.67;;;13.13;;
40150;SDS011;25866;52.420;10.640;2022-10-14T04:33:14;22.45;;;13.68;;
40150;SDS011;25866;52.420;10.640;2022-10-14T04:35:40;25.65;;;14.05;;
40150;SDS011;25866;52.420;10.640;2022-10-14T04:38:06;25.48;;;14.48;;
40150;SDS011;25866;52.420;10.640;2022-10-14T04:40:32;18.30;;;13.40;;
40150;SDS011;25866;52.420;10.640;2022-10-14T04:42:58;23.08;;;13.57;;
40150;SDS011;25866;52.420;10.640;2022-10-14T04:45:23;24.48;;;14.15;;
40150;SDS011;25866;52.420;10.640;2022-10-14T04:47:50;22.08;;;13.98;;
40150;SDS011;25866;52.420;10.640;2022-10-14T04:50:16;22.63;;;14.32;;
40150;SDS011;25866;52.420;10.640;2022-10-14T04:52:42;21.27;;;13.30;;
40150;SDS011;25866;52.420;10.640;2022-10-14T04:55:08;19.88;;;13.15;;
40150;SDS011;25866;52.420;10.640;2022-10-14T04:57:34;19.20;;;13.63;;
40150;SDS011;25866;52.420;10.640;2022-10-14T05:00:00;21.13;;;12.70;;
40150;SDS011;25866;52.420;10.640;2022-10-14T05:02:27;21.35;;;12.82;;
40150;SDS011;25866;52.420;10.640;2022-10-14T05:04:53;23.95;;;13.63;;
40150;SDS011;25866;52.420;10.640;2022-10-14T05:07:19;24.20;;;14.35;;
40150;SDS011;25866;52.420;10.640;2022-10-14T05:09:45;23.27;;;14.82;;
40150;SDS011;25866;52.420;10.640;2022-10-14T05:12:11;19.40;;;13.15;;
40150;SDS011;25866;52.420;10.640;2022-10-14T05:14:38;20.52;;;12.88;;
40150;SDS011;25866;52.420;10.640;2022-10-14T05:17:04;20.20;;;13.57;;
40150;SDS011;25866;52.420;10.640;2022-10-14T05:19:30;19.38;;;12.75;;
40150;SDS011;25866;52.420;10.640;2022-10-14T05:21:55;22.58;;;13.52;;
40150;SDS011;25866;52.420;10.640;2022-10-14T05:24:21;19.45;;;13.98;;
40150;SDS011;25866;52.420;10.640;2022-10-14T05:26:47;19.48;;;12.82;;
40150;SDS011;25866;52.420;10.640;2022-10-14T05:29:13;20.80;;;13.57;;
40150;SDS011;25866;52.420;10.640;2022-10-14T05:31:39;20.85;;;13.48;;
40150;SDS011;25866;52.420;10.640;2022-10-14T05:34:04;19.90;;;13.70;;
40150;SDS011;25866;52.420;10.640;2022-10-14T05:36:30;19.55;;;13.32;;
40150;SDS011;25866;52.420;10.640;2022-10-14T05:38:56;27.60;;;15.13;;
40150;SDS011;25866;52.420;10.640;2022-10-14T05:41:23;19.08;;;13.88;;
40150;SDS011;25866;52.420;10.640;2022-10-14T05:43:49;24.35;;;15.23;;
40150;SDS011;25866;52.420;10.640;2022-10-14T05:46:15;22.20;;;14.65;;
40150;SDS011;25866;52.420;10.640;2022-10-14T05:48:41;25.33;;;14.73;;
40150;SDS011;25866;52.420;10.640;2022-10-14T05:51:07;22.45;;;13.73;;
40150;SDS011;25866;52.420;10.640;2022-10-14T05:53:33;23.60;;;14.48;;
40150;SDS011;25866;52.420;10.640;2022-10-14T05:56:09;22.48;;;13.55;;
40150;SDS011;25866;52.420;10.640;2022-10-14T05:58:34;22.00;;;14.02;;
40150;SDS011;25866;52.420;10.640;2022-10-14T06:01:00;22.25;;;14.55;;
40150;SDS011;25866;52.420;10.640;2022-10-14T06:03:28;21.55;;;14.45;;
40150;SDS011;25866;52.420;10.640;2022-10-14T06:05:54;25.63;;;15.05;;
40150;SDS011;25866;52.420;10.640;2022-10-14T06:08:20;24.70;;;15.05;;
40150;SDS011;25866;52.420;10.640;2022-10-14T06:10:46;23.90;;;13.88;;
40150;SDS011;25866;52.420;10.640;2022-10-14T06:13:12;21.13;;;13.45;;
40150;SDS011;25866;52.420;10.640;2022-10-14T06:15:38;26.48;;;14.70;;
40150;SDS011;25866;52.420;10.640;2022-10-14T06:18:04;24.60;;;14.45;;
40150;SDS011;25866;52.420;10.640;2022-10-14T06:20:29;24.15;;;15.45;;
40150;SDS011;25866;52.420;10.640;2022-10-14T06:22:57;25.35;;;14.27;;
40150;SDS011;25866;52.420;10.640;2022-10-14T06:25:23;23.20;;;14.25;;
40150;SDS011;25866;52.420;10.640;2022-10-14T06:27:50;24.88;;;15.07;;
40150;SDS011;25866;52.420;10.640;2022-10-14T06:30:15;23.25;;;14.13;;
40150;SDS011;25866;52.420;10.640;2022-10-14T06:32:41;21.75;;;15.10;;
40150;SDS011;25866;52.420;10.640;2022-10-14T06:35:07;18.45;;;13.20;;
40150;SDS011;25866;52.420;10.640;2022-10-14T06:37:33;21.40;;;13.48;;
40150;SDS011;25866;52.420;10.640;2022-10-14T06:39:59;18.55;;;13.70;;
40150;SDS011;25866;52.420;10.640;2022-10-14T06:42:25;21.33;;;12.70;;
40150;SDS011;25866;52.420;10.640;2022-10-14T06:44:50;22.75;;;14.25;;
40150;SDS011;25866;52.420;10.640;2022-10-14T06:47:16;22.30;;;13.95;;
40150;SDS011;25866;52.420;10.640;2022-10-14T06:49:42;25.63;;;14.45;;
40150;SDS011;25866;52.420;10.640;2022-10-14T06:52:07;20.80;;;13.27;;
40150;SDS011;25866;52.420;10.640;2022-10-14T06:54:33;23.55;;;14.65;;
40150;SDS011;25866;52.420;10.640;2022-10-14T06:56:59;23.05;;;14.70;;
40150;SDS011;25866;52.420;10.640;2022-10-14T06:59:25;23.90;;;15.13;;
40150;SDS011;25866;52.420;10.640;2022-10-14T07:01:53;26.85;;;14.95;;
40150;SDS011;25866;52.420;10.640;2022-10-14T07:04:19;21.55;;;14.45;;
40150;SDS011;25866;52.420;10.640;2022-10-14T07:06:45;21.33;;;14.10;;
40150;SDS011;25866;52.420;10.640;2022-10-14T07:09:11;22.80;;;14.75;;
40150;SDS011;25866;52.420;10.640;2022-10-14T07:11:37;24.65;;;14.40;;
40150;SDS011;25866;52.420;10.640;2022-10-14T07:14:02;23.70;;;14.27;;
40150;SDS011;25866;52.420;10.640;2022-10-14T07:16:28;22.77;;;14.82;;
40150;SDS011;25866;52.420;10.640;2022-10-14T07:18:54;21.90;;;13.98;;
40150;SDS011;25866;52.420;10.640;2022-10-14T07:21:20;27.40;;;15.25;;
40150;SDS011;25866;52.420;10.640;2022-10-14T07:23:45;24.98;;;14.52;;
40150;SDS011;25866;52.420;10.640;2022-10-14T07:26:11;28.20;;;15.50;;
40150;SDS011;25866;52.420;10.640;2022-10-14T07:28:37;22.15;;;15.00;;
40150;SDS011;25866;52.420;10.640;2022-10-14T07:31:04;22.40;;;14.45;;
40150;SDS011;25866;52.420;10.640;2022-10-14T07:33:31;24.08;;;15.55;;
40150;SDS011;25866;52.420;10.640;2022-10-14T07:36:06;25.77;;;15.60;;
40150;SDS011;25866;52.420;10.640;2022-10-14T07:38:34;21.98;;;14.52;;
40150;SDS011;25866;52.420;10.640;2022-10-14T07:41:01;21.38;;;13.90;;
40150;SDS011;25866;52.420;10.640;2022-10-14T07:43:32;21.85;;;14.48;;
40150;SDS011;25866;52.420;10.640;2022-10-14T07:45:59;24.33;;;14.98;;
40150;SDS011;25866;52.420;10.640;2022-10-14T07:48:28;23.92;;;14.18;;
40150;SDS011;25866;52.420;10.640;2022-10-14T07:50:54;21.40;;;14.18;;
40150;SDS011;25866;52.420;10.640;2022-10-14T07:53:21;23.52;;;14.82;;
40150;SDS011;25866;52.420;10.640;2022-10-14T07:55:47;21.20;;;14.43;;
40150;SDS011;25866;52.420;10.640;2022-10-14T07:58:20;25.30;;;14.45;;
40150;SDS011;25866;52.420;10.640;2022-10-14T08:00:47;21.52;;;14.13;;
40150;SDS011;25866;52.420;10.640;2022-10-14T08:03:14;18.13;;;13.38;;
40150;SDS011;25866;52.420;10.640;2022-10-14T08:05:41;23.48;;;14.38;;
40150;SDS011;25866;52.420;10.640;2022-10-14T08:08:07;22.60;;;14.23;;
40150;SDS011;25866;52.420;10.640;2022-10-14T08:10:33;24.70;;;13.75;;
40150;SDS011;25866;52.420;10.640;2022-10-14T08:12:59;22.55;;;13.40;;
40150;SDS011;25866;52.420;10.640;2022-10-14T08:15:25;20.70;;;13.63;;
40150;SDS011;25866;52.420;10.640;2022-10-14T08:17:53;18.08;;;12.73;;
40150;SDS011;25866;52.420;10.640;2022-10-14T08:20:20;23.85;;;13.43;;
40150;SDS011;25866;52.420;10.640;2022-10-14T08:22:46;22.35;;;14.27;;
40150;SDS011;25866;52.420;10.640;2022-10-14T08:25:12;22.50;;;13.75;;
40150;SDS011;25866;52.420;10.640;2022-10-14T08:27:37;21.20;;;13.80;;
40150;SDS011;25866;52.420;10.640;2022-10-14T08:30:04;22.27;;;13.25;;
40150;SDS011;25866;52.420;10.640;2022-10-14T08:32:30;24.08;;;13.02;;
40150;SDS011;25866;52.420;10.640;2022-10-14T08:34:55;21.38;;;13.50;;
40150;SDS011;25866;52.420;10.640;2022-10-14T08:37:21;19.48;;;12.60;;
40150;SDS011;25866;52.420;10.640;2022-10-14T08:39:47;21.23;;;13.30;;
40150;SDS011;25866;52.420;10.640;2022-10-14T08:47:56;19.75;;;12.15;;
40150;SDS011;25866;52.420;10.640;2022-10-14T08:50:32;19.80;;;12.90;;
40150;SDS011;25866;52.420;10.640;2022-10-14T08:53:13;17.48;;;12.30;;
40150;SDS011;25866;52.420;10.640;2022-10-14T08:55:43;18.65;;;12.75;;
40150;SDS011;25866;52.420;10.640;2022-10-14T09:03:42;17.85;;;11.80;;
40150;SDS011;25866;52.420;10.640;2022-10-14T09:06:10;18.30;;;12.07;;
40150;SDS011;25866;52.420;10.640;2022-10-14T09:08:45;16.50;;;11.60;;
40150;SDS011;25866;52.420;10.640;2022-10-14T09:11:13;18.92;;;11.85;;
40150;SDS011;25866;52.420;10.640;2022-10-14T09:13:42;16.83;;;10.50;;
40150;SDS011;25866;52.420;10.640;2022-10-14T09:16:22;17.70;;;11.32;;
40150;SDS011;25866;52.420;10.640;2022-10-14T09:19:03;15.70;;;9.55;;
40150;SDS011;25866;52.420;10.640;2022-10-14T09:21:38;13.50;;;10.10;;
40150;SDS011;25866;52.420;10.640;2022-10-14T09:24:20;14.95;;;9.88;;
40150;SDS011;25866;52.420;10.640;2022-10-14T09:26:47;14.60;;;9.25;;
40150;SDS011;25866;52.420;10.640;2022-10-14T09:31:50;14.43;;;8.93;;
40150;SDS011;25866;52.420;10.640;2022-10-14T09:34:43;12.93;;;8.18;;
40150;SDS011;25866;52.420;10.640;2022-10-14T09:37:28;15.98;;;8.23;;
40150;SDS011;25866;52.420;10.640;2022-10-14T09:40:08;13.68;;;8.73;;
40150;SDS011;25866;52.420;10.640;2022-10-14T09:42:56;11.07;;;7.50;;
40150;SDS011;25866;52.420;10.640;2022-10-14T09:45:46;9.93;;;7.57;;
40150;SDS011;25866;52.420;10.640;2022-10-14T09:51:02;9.35;;;6.82;;
40150;SDS011;25866;52.420;10.640;2022-10-14T09:53:44;12.50;;;8.10;;
40150;SDS011;25866;52.420;10.640;2022-10-14T09:56:13;11.35;;;8.00;;
40150;SDS011;25866;52.420;10.640;2022-10-14T09:58:52;13.00;;;7.35;;
40150;SDS011;25866;52.420;10.640;2022-10-14T10:01:25;13.77;;;7.13;;
40150;SDS011;25866;52.420;10.640;2022-10-14T10:03:53;11.70;;;7.47;;
40150;SDS011;25866;52.420;10.640;2022-10-14T10:06:24;11.02;;;8.15;;
40150;SDS011;25866;52.420;10.640;2022-10-14T10:14:15;7.95;;;6.05;;
40150;SDS011;25866;52.420;10.640;2022-10-14T10:16:44;9.27;;;6.68;;
40150;SDS011;25866;52.420;10.640;2022-10-14T10:19:26;9.65;;;5.97;;
40150;SDS011;25866;52.420;10.640;2022-10-14T10:21:53;9.75;;;6.53;;
40150;SDS011;25866;52.420;10.640;2022-10-14T10:24:21;10.57;;;6.18;;
40150;SDS011;25866;52.420;10.640;2022-10-14T10:26:48;13.02;;;6.38;;
40150;SDS011;25866;52.420;10.640;2022-10-14T10:29:24;13.10;;;6.28;;
40150;SDS011;25866;52.420;10.640;2022-10-14T10:35:01;6.25;;;4.82;;
40150;SDS011;25866;52.420;10.640;2022-10-14T10:40:59;5.47;;;4.30;;
40150;SDS011;25866;52.420;10.640;2022-10-14T10:49:42;4.13;;;3.33;;
40150;SDS011;25866;52.420;10.640;2022-10-14T10:55:33;4.30;;;3.50;;
40150;SDS011;25866;52.420;10.640;2022-10-14T11:09:57;5.13;;;3.22;;
40150;SDS011;25866;52.420;10.640;2022-10-14T11:18:49;6.95;;;2.75;;
40150;SDS011;25866;52.420;10.640;2022-10-14T11:21:43;3.72;;;2.65;;
40150;SDS011;25866;52.420;10.640;2022-10-14T11:32:35;2.63;;;2.08;;
40150;SDS011;25866;52.420;10.640;2022-10-14T11:41:18;2.35;;;1.90;;
40150;SDS011;25866;52.420;10.640;2022-10-14T11:46:39;2.22;;;1.88;;
40150;SDS011;25866;52.420;10.640;2022-10-14T11:49:17;3.13;;;1.73;;
40150;SDS011;25866;52.420;10.640;2022-10-14T11:51:58;1.65;;;1.50;;
40150;SDS011;25866;52.420;10.640;2022-10-14T11:59:52;3.13;;;1.58;;
40150;SDS011;25866;52.420;10.640;2022-10-14T12:05:17;2.20;;;1.50;;
40150;SDS011;25866;52.420;10.640;2022-10-14T12:13:41;2.72;;;1.63;;
40150;SDS011;25866;52.420;10.640;2022-10-14T12:16:16;2.88;;;1.80;;
40150;SDS011;25866;52.420;10.640;2022-10-14T12:18:46;3.53;;;1.70;;
40150;SDS011;25866;52.420;10.640;2022-10-14T12:21:20;5.38;;;1.73;;
40150;SDS011;25866;52.420;10.640;2022-10-14T12:24:11;3.53;;;2.20;;
40150;SDS011;25866;52.420;10.640;2022-10-14T12:26:59;2.42;;;1.80;;
40150;SDS011;25866;52.420;10.640;2022-10-14T12:29:41;5.85;;;2.20;;
40150;SDS011;25866;52.420;10.640;2022-10-14T12:34:41;2.92;;;1.95;;
40150;SDS011;25866;52.420;10.640;2022-10-14T12:39:52;5.22;;;1.90;;
40150;SDS011;25866;52.420;10.640;2022-10-14T12:42:55;2.30;;;1.63;;
40150;SDS011;25866;52.420;10.640;2022-10-14T12:45:24;4.57;;;1.60;;
40150;SDS011;25866;52.420;10.640;2022-10-14T12:48:06;3.60;;;1.83;;
40150;SDS011;25866;52.420;10.640;2022-10-14T12:50:40;3.13;;;1.52;;
40150;SDS011;25866;52.420;10.640;2022-10-14T12:55:52;3.38;;;1.63;;
40150;SDS011;25866;52.420;10.640;2022-10-14T12:58:57;4.00;;;1.80;;
40150;SDS011;25866;52.420;10.640;2022-10-14T13:01:25;2.53;;;1.40;;
40150;SDS011;25866;52.420;10.640;2022-10-14T13:03:53;6.90;;;1.48;;
40150;SDS011;25866;52.420;10.640;2022-10-14T13:06:36;4.20;;;1.80;;
40150;SDS011;25866;52.420;10.640;2022-10-14T13:14:22;2.22;;;1.63;;
40150;SDS011;25866;52.420;10.640;2022-10-14T13:17:26;2.85;;;1.52;;
40150;SDS011;25866;52.420;10.640;2022-10-14T13:19:53;1.45;;;1.35;;
40150;SDS011;25866;52.420;10.640;2022-10-14T13:27:48;3.20;;;1.35;;
40150;SDS011;25866;52.420;10.640;2022-10-14T13:36:39;5.75;;;2.13;;
40150;SDS011;25866;52.420;10.640;2022-10-14T13:39:02;1.67;;;1.30;;
40150;SDS011;25866;52.420;10.640;2022-10-14T13:41:29;2.25;;;1.05;;
40150;SDS011;25866;52.420;10.640;2022-10-14T13:43:55;1.63;;;1.00;;
40150;SDS011;25866;52.420;10.640;2022-10-14T13:46:27;1.33;;;1.00;;
40150;SDS011;25866;52.420;10.640;2022-10-14T13:48:59;2.25;;;0.90;;
40150;SDS011;25866;52.420;10.640;2022-10-14T13:51:37;1.33;;;0.90;;
40150;SDS011;25866;52.420;10.640;2022-10-14T13:54:17;4.18;;;1.30;;
40150;SDS011;25866;52.420;10.640;2022-10-14T13:56:58;2.00;;;1.10;;
40150;SDS011;25866;52.420;10.640;2022-10-14T13:59:35;5.18;;;1.30;;
40150;SDS011;25866;52.420;10.640;2022-10-14T14:02:07;3.72;;;1.30;;
40150;SDS011;25866;52.420;10.640;2022-10-14T14:05:01;0.93;;;0.80;;
40150;SDS011;25866;52.420;10.640;2022-10-14T14:07:32;2.33;;;1.10;;
40150;SDS011;25866;52.420;10.640;2022-10-14T14:10:02;1.45;;;1.10;;
40150;SDS011;25866;52.420;10.640;2022-10-14T14:12:31;2.08;;;1.20;;
40150;SDS011;25866;52.420;10.640;2022-10-14T14:14:57;2.67;;;0.90;;
40150;SDS011;25866;52.420;10.640;2022-10-14T14:17:24;1.08;;;0.73;;
40150;SDS011;25866;52.420;10.640;2022-10-14T14:19:55;2.83;;;0.85;;
40150;SDS011;25866;52.420;10.640;2022-10-14T14:22:22;1.30;;;0.90;;
40150;SDS011;25866;52.420;10.640;2022-10-14T14:25:09;2.28;;;0.70;;
40150;SDS011;25866;52.420;10.640;2022-10-14T14:27:41;1.42;;;0.82;;
40150;SDS011;25866;52.420;10.640;2022-10-14T14:30:29;1.10;;;1.00;;
40150;SDS011;25866;52.420;10.640;2022-10-14T14:32:58;2.00;;;1.00;;
40150;SDS011;25866;52.420;10.640;2022-10-14T14:35:26;2.50;;;1.00;;
40150;SDS011;25866;52.420;10.640;2022-10-14T14:37:52;1.30;;;1.00;;
40150;SDS011;25866;52.420;10.640;2022-10-14T14:40:20;4.53;;;1.20;;
40150;SDS011;25866;52.420;10.640;2022-10-14T14:42:51;2.25;;;0.85;;
40150;SDS011;25866;52.420;10.640;2022-10-14T14:45:20;4.38;;;1.00;;
40150;SDS011;25866;52.420;10.640;2022-10-14T14:47:50;3.35;;;1.13;;
40150;SDS011;25866;52.420;10.640;2022-10-14T14:50:23;1.23;;;1.00;;
40150;SDS011;25866;52.420;10.640;2022-10-14T14:53:11;3.15;;;0.98;;
40150;SDS011;25866;52.420;10.640;2022-10-14T15:01:03;3.03;;;1.02;;
40150;SDS011;25866;52.420;10.640;2022-10-14T15:03:31;1.38;;;1.17;;
40150;SDS011;25866;52.420;10.640;2022-10-14T15:06:13;2.88;;;1.20;;
40150;SDS011;25866;52.420;10.640;2022-10-14T15:08:40;1.25;;;0.90;;
40150;SDS011;25866;52.420;10.640;2022-10-14T15:11:11;1.98;;;1.00;;
40150;SDS011;25866;52.420;10.640;2022-10-14T15:16:03;2.00;;;1.00;;
40150;SDS011;25866;52.420;10.640;2022-10-14T15:18:29;1.17;;;0.73;;
40150;SDS011;25866;52.420;10.640;2022-10-14T15:21:29;6.95;;;1.15;;
40150;SDS011;25866;52.420;10.640;2022-10-14T15:31:38;1.88;;;0.90;;
40150;SDS011;25866;52.420;10.640;2022-10-14T15:34:12;3.53;;;0.98;;
40150;SDS011;25866;52.420;10.640;2022-10-14T15:36:42;1.73;;;1.15;;
40150;SDS011;25866;52.420;10.640;2022-10-14T15:39:10;2.10;;;0.82;;
40150;SDS011;25866;52.420;10.640;2022-10-14T15:41:37;1.02;;;0.80;;
40150;SDS011;25866;52.420;10.640;2022-10-14T15:44:04;1.75;;;1.65;;
40150;SDS011;25866;52.420;10.640;2022-10-14T15:46:30;1.30;;;1.13;;
40150;SDS011;25866;52.420;10.640;2022-10-14T15:49:14;0.85;;;0.73;;
40150;SDS011;25866;52.420;10.640;2022-10-14T15:51:49;1.00;;;0.90;;
40150;SDS011;25866;52.420;10.640;2022-10-14T15:54:15;1.80;;;0.80;;
40150;SDS011;25866;52.420;10.640;2022-10-14T15:56:41;0.85;;;0.73;;
40150;SDS011;25866;52.420;10.640;2022-10-14T15:59:07;1.80;;;1.10;;
40150;SDS011;25866;52.420;10.640;2022-10-14T16:01:33;0.98;;;0.88;;
40150;SDS011;25866;52.420;10.640;2022-10-14T16:04:01;1.88;;;0.98;;
40150;SDS011;25866;52.420;10.640;2022-10-14T16:06:28;1.23;;;1.00;;
40150;SDS011;25866;52.420;10.640;2022-10-14T16:08:56;2.63;;;1.10;;
40150;SDS011;25866;52.420;10.640;2022-10-14T16:11:26;3.92;;;0.90;;
40150;SDS011;25866;52.420;10.640;2022-10-14T16:13:53;1.48;;;1.05;;
40150;SDS011;25866;52.420;10.640;2022-10-14T16:16:24;2.15;;;0.98;;
40150;SDS011;25866;52.420;10.640;2022-10-14T16:18:54;0.90;;;0.80;;
40150;SDS011;25866;52.420;10.640;2022-10-14T16:21:20;1.55;;;1.30;;
40150;SDS011;25866;52.420;10.640;2022-10-14T16:23:45;2.10;;;1.10;;
40150;SDS011;25866;52.420;10.640;2022-10-14T16:26:11;1.20;;;1.10;;
40150;SDS011;25866;52.420;10.640;2022-10-14T16:28:37;3.17;;;1.10;;
40150;SDS011;25866;52.420;10.640;2022-10-14T16:31:03;13.00;;;10.85;;
40150;SDS011;25866;52.420;10.640;2022-10-14T16:33:29;7.43;;;5.70;;
40150;SDS011;25866;52.420;10.640;2022-10-14T16:35:56;13.65;;;9.55;;
40150;SDS011;25866;52.420;10.640;2022-10-14T16:38:24;6.75;;;5.75;;
40150;SDS011;25866;52.420;10.640;2022-10-14T16:40:57;3.15;;;2.60;;
40150;SDS011;25866;52.420;10.640;2022-10-14T16:43:24;4.57;;;2.78;;
40150;SDS011;25866;52.420;10.640;2022-10-14T16:45:50;2.20;;;2.00;;
40150;SDS011;25866;52.420;10.640;2022-10-14T16:48:17;4.10;;;1.50;;
40150;SDS011;25866;52.420;10.640;2022-10-14T16:50:47;1.48;;;1.17;;
40150;SDS011;25866;52.420;10.640;2022-10-14T16:53:14;3.13;;;1.67;;
40150;SDS011;25866;52.420;10.640;2022-10-14T16:55:58;2.15;;;1.40;;
40150;SDS011;25866;52.420;10.640;2022-10-14T16:58:24;2.33;;;1.00;;
40150;SDS011;25866;52.420;10.640;2022-10-14T17:00:50;1.33;;;1.23;;
40150;SDS011;25866;52.420;10.640;2022-10-14T17:03:15;1.38;;;1.20;;
40150;SDS011;25866;52.420;10.640;2022-10-14T17:05:41;1.83;;;1.38;;